sensor_id;sensor_type;location;lat;lon;timestamp;pressure;altitude;pressure_sealevel;temperature
67353;BMP180;54238;52.278;21.056;2023-07-29T00:01:40;99693.60;;;18.80
67353;BMP180;54238;52.278;21.056;2023-07-29T00:04:10;99696.80;;;18.80
67353;BMP180;54238;52.278;21.056;2023-07-29T00:06:37;99702.40;;;18.80
67353;BMP180;54238;52.278;21.056;2023-07-29T00:09:06;99700.20;;;18.80
67353;BMP180;54238;52.278;21.056;2023-07-29T00:11:37;99704.40;;;18.80
67353;BMP180;54238;52.278;21.056;2023-07-29T00:14:06;99703.00;;;18.80
67353;BMP180;54238;52.278;21.056;2023-07-29T00:16:38;99703.20;;;18.80
67353;BMP180;54238;52.278;21.056;2023-07-29T00:19:06;99706.00;;;18.80
67353;BMP180;54238;52.278;21.056;2023-07-29T00:21:33;99708.00;;;18.80
67353;BMP180;54238;52.278;21.056;2023-07-29T00:24:02;99711.60;;;18.80
67353;BMP180;54238;52.278;21.056;2023-07-29T00:26:29;99712.80;;;18.72
67353;BMP180;54238;52.278;21.056;2023-07-29T00:28:57;99714.00;;;18.70
67353;BMP180;54238;52.278;21.056;2023-07-29T00:31:27;99713.20;;;18.70
67353;BMP180;54238;52.278;21.056;2023-07-29T00:33:57;99711.80;;;18.70
67353;BMP180;54238;52.278;21.056;2023-07-29T00:36:30;99716.40;;;18.62
67353;BMP180;54238;52.278;21.056;2023-07-29T00:38:59;99717.80;;;18.60
67353;BMP180;54238;52.278;21.056;2023-07-29T00:41:29;99719.60;;;18.60
67353;BMP180;54238;52.278;21.056;2023-07-29T00:44:01;99720.00;;;18.60
67353;BMP180;54238;52.278;21.056;2023-07-29T00:46:35;99723.20;;;18.54
67353;BMP180;54238;52.278;21.056;2023-07-29T00:49:04;99724.20;;;18.50
67353;BMP180;54238;52.278;21.056;2023-07-29T00:51:33;99724.20;;;18.50
67353;BMP180;54238;52.278;21.056;2023-07-29T00:54:00;99724.80;;;18.50
67353;BMP180;54238;52.278;21.056;2023-07-29T00:56:30;99722.80;;;18.50
67353;BMP180;54238;52.278;21.056;2023-07-29T00:59:01;99722.20;;;18.40
67353;BMP180;54238;52.278;21.056;2023-07-29T01:01:34;99725.40;;;18.40
67353;BMP180;54238;52.278;21.056;2023-07-29T01:04:02;99725.60;;;18.40
67353;BMP180;54238;52.278;21.056;2023-07-29T01:06:45;99724.40;;;18.36
67353;BMP180;54238;52.278;21.056;2023-07-29T01:09:33;99728.20;;;18.30
67353;BMP180;54238;52.278;21.056;2023-07-29T01:12:48;99735.60;;;18.30
67353;BMP180;54238;52.278;21.056;2023-07-29T01:15:22;99734.80;;;18.20
67353;BMP180;54238;52.278;21.056;2023-07-29T01:18:05;99733.40;;;18.20
67353;BMP180;54238;52.278;21.056;2023-07-29T01:20:40;99735.20;;;18.10
67353;BMP180;54238;52.278;21.056;2023-07-29T01:23:09;99735.80;;;18.10
67353;BMP180;54238;52.278;21.056;2023-07-29T01:25:39;99737.60;;;18.10
67353;BMP180;54238;52.278;21.056;2023-07-29T01:28:07;99736.20;;;18.00
67353;BMP180;54238;52.278;21.056;2023-07-29T01:30:40;99741.60;;;18.00
67353;BMP180;54238;52.278;21.056;2023-07-29T01:33:26;99744.60;;;18.00
67353;BMP180;54238;52.278;21.056;2023-07-29T01:36:06;99744.20;;;17.90
67353;BMP180;54238;52.278;21.056;2023-07-29T01:38:43;99743.80;;;17.90
67353;BMP180;54238;52.278;21.056;2023-07-29T01:41:16;99744.40;;;17.90
67353;BMP180;54238;52.278;21.056;2023-07-29T01:43:47;99749.40;;;17.90
67353;BMP180;54238;52.278;21.056;2023-07-29T01:46:18;99746.00;;;17.82
67353;BMP180;54238;52.278;21.056;2023-07-29T01:48:53;99750.20;;;17.80
67353;BMP180;54238;52.278;21.056;2023-07-29T01:51:22;99753.20;;;17.80
67353;BMP180;54238;52.278;21.056;2023-07-29T01:53:52;99750.60;;;17.80
67353;BMP180;54238;52.278;21.056;2023-07-29T01:56:21;99754.80;;;17.80
67353;BMP180;54238;52.278;21.056;2023-07-29T01:58:50;99755.00;;;17.80
67353;BMP180;54238;52.278;21.056;2023-07-29T02:01:20;99753.00;;;17.74
67353;BMP180;54238;52.278;21.056;2023-07-29T02:03:51;99757.40;;;17.70
67353;BMP180;54238;52.278;21.056;2023-07-29T02:06:22;99761.40;;;17.70
67353;BMP180;54238;52.278;21.056;2023-07-29T02:08:54;99762.60;;;17.68
67353;BMP180;54238;52.278;21.056;2023-07-29T02:11:25;99760.40;;;17.60
67353;BMP180;54238;52.278;21.056;2023-07-29T02:13:57;99764.60;;;17.60
67353;BMP180;54238;52.278;21.056;2023-07-29T02:16:29;99761.80;;;17.60
67353;BMP180;54238;52.278;21.056;2023-07-29T02:18:57;99765.60;;;17.60
67353;BMP180;54238;52.278;21.056;2023-07-29T02:21:28;99770.80;;;17.60
67353;BMP180;54238;52.278;21.056;2023-07-29T02:24:03;99772.60;;;17.52
67353;BMP180;54238;52.278;21.056;2023-07-29T02:26:33;99770.00;;;17.50
67353;BMP180;54238;52.278;21.056;2023-07-29T02:29:02;99779.20;;;17.52
67353;BMP180;54238;52.278;21.056;2023-07-29T02:31:32;99780.00;;;17.50
67353;BMP180;54238;52.278;21.056;2023-07-29T02:34:00;99779.00;;;17.50
67353;BMP180;54238;52.278;21.056;2023-07-29T02:36:32;99775.40;;;17.50
67353;BMP180;54238;52.278;21.056;2023-07-29T02:39:03;99780.40;;;17.50
67353;BMP180;54238;52.278;21.056;2023-07-29T02:41:30;99779.80;;;17.50
67353;BMP180;54238;52.278;21.056;2023-07-29T02:43:59;99781.00;;;17.50
67353;BMP180;54238;52.278;21.056;2023-07-29T02:46:29;99780.40;;;17.50
67353;BMP180;54238;52.278;21.056;2023-07-29T02:49:02;99780.00;;;17.50
67353;BMP180;54238;52.278;21.056;2023-07-29T02:51:32;99777.80;;;17.50
67353;BMP180;54238;52.278;21.056;2023-07-29T02:53:59;99780.20;;;17.44
67353;BMP180;54238;52.278;21.056;2023-07-29T02:56:26;99781.40;;;17.40
67353;BMP180;54238;52.278;21.056;2023-07-29T02:58:56;99780.20;;;17.40
67353;BMP180;54238;52.278;21.056;2023-07-29T03:01:23;99785.20;;;17.40
67353;BMP180;54238;52.278;21.056;2023-07-29T03:03:54;99787.00;;;17.30
67353;BMP180;54238;52.278;21.056;2023-07-29T03:06:23;99788.40;;;17.30
67353;BMP180;54238;52.278;21.056;2023-07-29T03:08:51;99788.80;;;17.30
67353;BMP180;54238;52.278;21.056;2023-07-29T03:11:20;99787.80;;;17.20
67353;BMP180;54238;52.278;21.056;2023-07-29T03:13:51;99787.20;;;17.20
67353;BMP180;54238;52.278;21.056;2023-07-29T03:16:21;99790.60;;;17.20
67353;BMP180;54238;52.278;21.056;2023-07-29T03:18:51;99790.80;;;17.20
67353;BMP180;54238;52.278;21.056;2023-07-29T03:21:25;99792.60;;;17.20
67353;BMP180;54238;52.278;21.056;2023-07-29T03:23:54;99796.80;;;17.20
67353;BMP180;54238;52.278;21.056;2023-07-29T03:26:26;99796.80;;;17.20
67353;BMP180;54238;52.278;21.056;2023-07-29T03:28:56;99798.80;;;17.20
67353;BMP180;54238;52.278;21.056;2023-07-29T03:31:25;99804.80;;;17.20
67353;BMP180;54238;52.278;21.056;2023-07-29T03:33:59;99804.20;;;17.20
67353;BMP180;54238;52.278;21.056;2023-07-29T03:36:30;99807.80;;;17.20
67353;BMP180;54238;52.278;21.056;2023-07-29T03:39:00;99802.40;;;17.14
67353;BMP180;54238;52.278;21.056;2023-07-29T03:41:31;99806.20;;;17.10
67353;BMP180;54238;52.278;21.056;2023-07-29T03:44:03;99809.60;;;17.00
67353;BMP180;54238;52.278;21.056;2023-07-29T03:46:33;99816.60;;;17.00
67353;BMP180;54238;52.278;21.056;2023-07-29T03:49:06;99823.00;;;17.00
67353;BMP180;54238;52.278;21.056;2023-07-29T03:51:33;99818.20;;;17.00
67353;BMP180;54238;52.278;21.056;2023-07-29T03:54:01;99817.80;;;17.00
67353;BMP180;54238;52.278;21.056;2023-07-29T03:56:30;99817.60;;;17.00
67353;BMP180;54238;52.278;21.056;2023-07-29T03:59:04;99821.60;;;17.00
67353;BMP180;54238;52.278;21.056;2023-07-29T04:01:34;99820.60;;;17.00
67353;BMP180;54238;52.278;21.056;2023-07-29T04:04:03;99824.00;;;17.02
67353;BMP180;54238;52.278;21.056;2023-07-29T04:06:33;99825.80;;;17.10
67353;BMP180;54238;52.278;21.056;2023-07-29T04:09:00;99826.60;;;17.10
67353;BMP180;54238;52.278;21.056;2023-07-29T04:11:27;99830.00;;;17.20
67353;BMP180;54238;52.278;21.056;2023-07-29T04:13:54;99830.60;;;17.20
67353;BMP180;54238;52.278;21.056;2023-07-29T04:16:24;99829.80;;;17.20
67353;BMP180;54238;52.278;21.056;2023-07-29T04:18:53;99837.20;;;17.20
67353;BMP180;54238;52.278;21.056;2023-07-29T04:21:20;99836.60;;;17.20
67353;BMP180;54238;52.278;21.056;2023-07-29T04:23:47;99840.60;;;17.20
67353;BMP180;54238;52.278;21.056;2023-07-29T04:26:17;99842.40;;;17.30
67353;BMP180;54238;52.278;21.056;2023-07-29T04:28:51;99842.60;;;17.30
67353;BMP180;54238;52.278;21.056;2023-07-29T04:31:19;99845.40;;;17.30
67353;BMP180;54238;52.278;21.056;2023-07-29T04:33:50;99846.00;;;17.40
67353;BMP180;54238;52.278;21.056;2023-07-29T04:36:17;99852.40;;;17.40
67353;BMP180;54238;52.278;21.056;2023-07-29T04:38:47;99856.80;;;17.50
67353;BMP180;54238;52.278;21.056;2023-07-29T04:41:17;99861.20;;;17.50
67353;BMP180;54238;52.278;21.056;2023-07-29T04:43:47;99869.40;;;17.50
67353;BMP180;54238;52.278;21.056;2023-07-29T04:46:18;99873.20;;;17.50
67353;BMP180;54238;52.278;21.056;2023-07-29T04:48:48;99874.40;;;17.58
67353;BMP180;54238;52.278;21.056;2023-07-29T04:51:17;99875.80;;;17.60
67353;BMP180;54238;52.278;21.056;2023-07-29T04:53:47;99875.40;;;17.70
67353;BMP180;54238;52.278;21.056;2023-07-29T04:56:14;99876.40;;;17.72
67353;BMP180;54238;52.278;21.056;2023-07-29T04:58:41;99873.40;;;17.80
67353;BMP180;54238;52.278;21.056;2023-07-29T05:01:08;99871.20;;;17.80
67353;BMP180;54238;52.278;21.056;2023-07-29T05:03:35;99874.20;;;17.80
67353;BMP180;54238;52.278;21.056;2023-07-29T05:06:03;99877.40;;;17.80
67353;BMP180;54238;52.278;21.056;2023-07-29T05:08:30;99887.40;;;17.90
67353;BMP180;54238;52.278;21.056;2023-07-29T05:11:00;99894.00;;;17.90
67353;BMP180;54238;52.278;21.056;2023-07-29T05:13:29;99893.00;;;17.90
67353;BMP180;54238;52.278;21.056;2023-07-29T05:15:59;99894.80;;;17.94
67353;BMP180;54238;52.278;21.056;2023-07-29T05:18:29;99900.00;;;18.00
67353;BMP180;54238;52.278;21.056;2023-07-29T05:20:56;99895.20;;;18.00
67353;BMP180;54238;52.278;21.056;2023-07-29T05:23:23;99899.20;;;18.10
67353;BMP180;54238;52.278;21.056;2023-07-29T05:25:56;99897.80;;;18.20
67353;BMP180;54238;52.278;21.056;2023-07-29T05:28:26;99896.80;;;18.30
67353;BMP180;54238;52.278;21.056;2023-07-29T05:30:55;99893.20;;;18.40
67353;BMP180;54238;52.278;21.056;2023-07-29T05:33:22;99900.60;;;18.50
67353;BMP180;54238;52.278;21.056;2023-07-29T05:35:54;99896.80;;;18.60
67353;BMP180;54238;52.278;21.056;2023-07-29T05:38:21;99898.20;;;18.80
67353;BMP180;54238;52.278;21.056;2023-07-29T05:40:52;99896.20;;;18.84
67353;BMP180;54238;52.278;21.056;2023-07-29T05:43:23;99894.80;;;18.90
67353;BMP180;54238;52.278;21.056;2023-07-29T05:45:51;99895.80;;;19.00
67353;BMP180;54238;52.278;21.056;2023-07-29T05:48:25;99894.80;;;19.00
67353;BMP180;54238;52.278;21.056;2023-07-29T05:50:55;99893.20;;;19.00
67353;BMP180;54238;52.278;21.056;2023-07-29T05:53:25;99900.60;;;19.02
67353;BMP180;54238;52.278;21.056;2023-07-29T05:55:52;99904.00;;;19.00
67353;BMP180;54238;52.278;21.056;2023-07-29T05:58:21;99907.80;;;19.02
67353;BMP180;54238;52.278;21.056;2023-07-29T06:00:53;99906.40;;;19.02
67353;BMP180;54238;52.278;21.056;2023-07-29T06:03:22;99903.00;;;19.10
67353;BMP180;54238;52.278;21.056;2023-07-29T06:05:52;99905.40;;;19.10
67353;BMP180;54238;52.278;21.056;2023-07-29T06:08:21;99910.40;;;19.20
67353;BMP180;54238;52.278;21.056;2023-07-29T06:10:51;99915.40;;;19.20
67353;BMP180;54238;52.278;21.056;2023-07-29T06:13:18;99915.00;;;19.30
67353;BMP180;54238;52.278;21.056;2023-07-29T06:15:50;99915.80;;;19.30
67353;BMP180;54238;52.278;21.056;2023-07-29T06:18:17;99920.80;;;19.30
67353;BMP180;54238;52.278;21.056;2023-07-29T06:20:51;99928.40;;;19.38
67353;BMP180;54238;52.278;21.056;2023-07-29T06:23:23;99928.00;;;19.40
67353;BMP180;54238;52.278;21.056;2023-07-29T06:25:52;99934.00;;;19.48
67353;BMP180;54238;52.278;21.056;2023-07-29T06:28:23;99936.20;;;19.50
67353;BMP180;54238;52.278;21.056;2023-07-29T06:30:52;99941.60;;;19.60
67353;BMP180;54238;52.278;21.056;2023-07-29T06:33:22;99945.60;;;19.70
67353;BMP180;54238;52.278;21.056;2023-07-29T06:35:48;99944.60;;;19.80
67353;BMP180;54238;52.278;21.056;2023-07-29T06:38:21;99947.60;;;19.88
67353;BMP180;54238;52.278;21.056;2023-07-29T06:40:50;99944.40;;;19.94
67353;BMP180;54238;52.278;21.056;2023-07-29T06:43:20;99949.00;;;20.10
67353;BMP180;54238;52.278;21.056;2023-07-29T06:45:52;99948.60;;;20.24
67353;BMP180;54238;52.278;21.056;2023-07-29T06:48:24;99951.80;;;20.40
67353;BMP180;54238;52.278;21.056;2023-07-29T06:50:51;99957.20;;;20.60
67353;BMP180;54238;52.278;21.056;2023-07-29T06:53:21;99954.60;;;20.70
67353;BMP180;54238;52.278;21.056;2023-07-29T06:55:48;99949.40;;;20.90
67353;BMP180;54238;52.278;21.056;2023-07-29T06:58:18;99953.80;;;21.00
67353;BMP180;54238;52.278;21.056;2023-07-29T07:00:47;99953.20;;;21.02
67353;BMP180;54238;52.278;21.056;2023-07-29T07:03:16;99955.20;;;21.10
67353;BMP180;54238;52.278;21.056;2023-07-29T07:05:44;99952.20;;;21.10
67353;BMP180;54238;52.278;21.056;2023-07-29T07:08:13;99950.80;;;21.10
67353;BMP180;54238;52.278;21.056;2023-07-29T07:10:40;99951.80;;;21.10
67353;BMP180;54238;52.278;21.056;2023-07-29T07:13:12;99946.00;;;21.12
67353;BMP180;54238;52.278;21.056;2023-07-29T07:15:39;99948.80;;;21.20
67353;BMP180;54238;52.278;21.056;2023-07-29T07:18:07;99943.20;;;21.22
67353;BMP180;54238;52.278;21.056;2023-07-29T07:20:37;99941.20;;;21.30
67353;BMP180;54238;52.278;21.056;2023-07-29T07:23:06;99943.60;;;21.34
67353;BMP180;54238;52.278;21.056;2023-07-29T07:25:42;99942.60;;;21.36
67353;BMP180;54238;52.278;21.056;2023-07-29T07:28:11;99940.00;;;21.40
67353;BMP180;54238;52.278;21.056;2023-07-29T07:30:45;99940.40;;;21.40
67353;BMP180;54238;52.278;21.056;2023-07-29T07:33:15;99943.20;;;21.40
67353;BMP180;54238;52.278;21.056;2023-07-29T07:35:47;99939.60;;;21.50
67353;BMP180;54238;52.278;21.056;2023-07-29T07:38:14;99945.00;;;21.50
67353;BMP180;54238;52.278;21.056;2023-07-29T07:40:42;99939.80;;;21.50
67353;BMP180;54238;52.278;21.056;2023-07-29T07:43:09;99934.60;;;21.58
67353;BMP180;54238;52.278;21.056;2023-07-29T07:45:40;99937.00;;;21.64
67353;BMP180;54238;52.278;21.056;2023-07-29T07:48:08;99937.00;;;21.70
67353;BMP180;54238;52.278;21.056;2023-07-29T07:50:37;99939.00;;;21.90
67353;BMP180;54238;52.278;21.056;2023-07-29T07:53:06;99943.00;;;22.00
67353;BMP180;54238;52.278;21.056;2023-07-29T07:55:35;99942.60;;;22.10
67353;BMP180;54238;52.278;21.056;2023-07-29T07:58:05;99949.00;;;22.20
67353;BMP180;54238;52.278;21.056;2023-07-29T08:00:37;99949.40;;;22.20
67353;BMP180;54238;52.278;21.056;2023-07-29T08:03:06;99945.40;;;22.16
67353;BMP180;54238;52.278;21.056;2023-07-29T08:05:36;99938.20;;;22.30
67353;BMP180;54238;52.278;21.056;2023-07-29T08:08:08;99941.20;;;22.50
67353;BMP180;54238;52.278;21.056;2023-07-29T08:10:42;99945.00;;;22.60
67353;BMP180;54238;52.278;21.056;2023-07-29T08:13:09;99948.00;;;22.70
67353;BMP180;54238;52.278;21.056;2023-07-29T08:15:45;99944.40;;;22.70
67353;BMP180;54238;52.278;21.056;2023-07-29T08:18:12;99943.80;;;22.70
67353;BMP180;54238;52.278;21.056;2023-07-29T08:20:39;99944.80;;;22.60
67353;BMP180;54238;52.278;21.056;2023-07-29T08:23:07;99939.60;;;22.50
67353;BMP180;54238;52.278;21.056;2023-07-29T08:25:40;99938.20;;;22.50
67353;BMP180;54238;52.278;21.056;2023-07-29T08:28:09;99942.40;;;22.50
67353;BMP180;54238;52.278;21.056;2023-07-29T08:30:42;99940.40;;;22.58
67353;BMP180;54238;52.278;21.056;2023-07-29T08:33:14;99940.40;;;22.60
67353;BMP180;54238;52.278;21.056;2023-07-29T08:35:44;99932.60;;;22.78
67353;BMP180;54238;52.278;21.056;2023-07-29T08:38:14;99936.60;;;23.00
67353;BMP180;54238;52.278;21.056;2023-07-29T08:40:57;99940.00;;;23.10
67353;BMP180;54238;52.278;21.056;2023-07-29T08:43:29;99933.60;;;23.14
67353;BMP180;54238;52.278;21.056;2023-07-29T08:46:04;99932.20;;;23.20
67353;BMP180;54238;52.278;21.056;2023-07-29T08:48:43;99930.40;;;23.40
67353;BMP180;54238;52.278;21.056;2023-07-29T08:51:12;99931.00;;;23.60
67353;BMP180;54238;52.278;21.056;2023-07-29T08:53:40;99931.80;;;23.82
67353;BMP180;54238;52.278;21.056;2023-07-29T08:56:10;99933.60;;;24.10
67353;BMP180;54238;52.278;21.056;2023-07-29T08:58:40;99933.00;;;24.40
67353;BMP180;54238;52.278;21.056;2023-07-29T09:01:09;99932.00;;;24.50
67353;BMP180;54238;52.278;21.056;2023-07-29T09:03:37;99936.20;;;24.60
67353;BMP180;54238;52.278;21.056;2023-07-29T09:06:05;99927.40;;;24.78
67353;BMP180;54238;52.278;21.056;2023-07-29T09:08:35;99933.00;;;24.68
67353;BMP180;54238;52.278;21.056;2023-07-29T09:11:08;99926.80;;;24.60
67353;BMP180;54238;52.278;21.056;2023-07-29T09:13:35;99932.00;;;24.80
67353;BMP180;54238;52.278;21.056;2023-07-29T09:16:06;99932.60;;;24.80
67353;BMP180;54238;52.278;21.056;2023-07-29T09:18:35;99930.00;;;24.88
67353;BMP180;54238;52.278;21.056;2023-07-29T09:21:07;99936.20;;;24.90
67353;BMP180;54238;52.278;21.056;2023-07-29T09:23:43;99936.00;;;24.90
67353;BMP180;54238;52.278;21.056;2023-07-29T09:26:13;99940.60;;;24.80
67353;BMP180;54238;52.278;21.056;2023-07-29T09:28:42;99936.20;;;24.80
67353;BMP180;54238;52.278;21.056;2023-07-29T09:31:22;99936.00;;;24.70
67353;BMP180;54238;52.278;21.056;2023-07-29T09:34:03;99933.20;;;24.60
67353;BMP180;54238;52.278;21.056;2023-07-29T09:36:33;99929.40;;;24.70
67353;BMP180;54238;52.278;21.056;2023-07-29T09:39:00;99933.80;;;24.90
67353;BMP180;54238;52.278;21.056;2023-07-29T09:41:29;99934.00;;;25.22
67353;BMP180;54238;52.278;21.056;2023-07-29T09:44:06;99932.80;;;25.60
67353;BMP180;54238;52.278;21.056;2023-07-29T09:46:38;99929.00;;;25.94
67353;BMP180;54238;52.278;21.056;2023-07-29T09:49:10;99924.60;;;26.24
67353;BMP180;54238;52.278;21.056;2023-07-29T09:51:39;99924.40;;;26.50
67353;BMP180;54238;52.278;21.056;2023-07-29T09:54:09;99923.80;;;26.50
67353;BMP180;54238;52.278;21.056;2023-07-29T09:56:41;99916.80;;;26.50
67353;BMP180;54238;52.278;21.056;2023-07-29T09:59:19;99918.60;;;26.70
67353;BMP180;54238;52.278;21.056;2023-07-29T10:01:48;99920.20;;;27.00
67353;BMP180;54238;52.278;21.056;2023-07-29T10:04:19;99922.80;;;27.10
67353;BMP180;54238;52.278;21.056;2023-07-29T10:06:52;99921.60;;;27.40
67353;BMP180;54238;52.278;21.056;2023-07-29T10:09:24;99919.20;;;27.80
67353;BMP180;54238;52.278;21.056;2023-07-29T10:11:56;99913.40;;;28.02
67353;BMP180;54238;52.278;21.056;2023-07-29T10:14:29;99920.60;;;28.30
67353;BMP180;54238;52.278;21.056;2023-07-29T10:16:58;99916.20;;;28.40
67353;BMP180;54238;52.278;21.056;2023-07-29T10:19:28;99914.40;;;28.60
67353;BMP180;54238;52.278;21.056;2023-07-29T10:22:03;99929.00;;;28.80
67353;BMP180;54238;52.278;21.056;2023-07-29T10:24:32;99928.40;;;28.70
67353;BMP180;54238;52.278;21.056;2023-07-29T10:27:06;99921.80;;;28.50
67353;BMP180;54238;52.278;21.056;2023-07-29T10:29:42;99911.80;;;28.50
67353;BMP180;54238;52.278;21.056;2023-07-29T10:32:13;99912.00;;;28.78
67353;BMP180;54238;52.278;21.056;2023-07-29T10:34:46;99909.80;;;29.00
67353;BMP180;54238;52.278;21.056;2023-07-29T10:37:18;99912.40;;;29.30
67353;BMP180;54238;52.278;21.056;2023-07-29T10:39:55;99915.00;;;29.32
67353;BMP180;54238;52.278;21.056;2023-07-29T10:42:24;99916.80;;;29.32
67353;BMP180;54238;52.278;21.056;2023-07-29T10:44:53;99913.80;;;29.20
67353;BMP180;54238;52.278;21.056;2023-07-29T10:49:56;99909.40;;;29.60
67353;BMP180;54238;52.278;21.056;2023-07-29T10:55:25;99913.00;;;30.24
67353;BMP180;54238;52.278;21.056;2023-07-29T10:58:15;99910.40;;;30.50
67353;BMP180;54238;52.278;21.056;2023-07-29T11:00:48;99901.00;;;30.60
67353;BMP180;54238;52.278;21.056;2023-07-29T11:03:19;99907.00;;;30.74
67353;BMP180;54238;52.278;21.056;2023-07-29T11:05:53;99902.20;;;30.88
67353;BMP180;54238;52.278;21.056;2023-07-29T11:08:30;99902.60;;;31.14
67353;BMP180;54238;52.278;21.056;2023-07-29T11:11:07;99905.00;;;31.50
67353;BMP180;54238;52.278;21.056;2023-07-29T11:13:36;99917.60;;;31.80
67353;BMP180;54238;52.278;21.056;2023-07-29T11:16:09;99905.20;;;31.80
67353;BMP180;54238;52.278;21.056;2023-07-29T11:18:39;99904.40;;;32.00
67353;BMP180;54238;52.278;21.056;2023-07-29T11:21:08;99898.80;;;32.10
67353;BMP180;54238;52.278;21.056;2023-07-29T11:23:38;99899.80;;;32.40
67353;BMP180;54238;52.278;21.056;2023-07-29T11:26:09;99891.60;;;32.66
67353;BMP180;54238;52.278;21.056;2023-07-29T11:28:41;99892.60;;;32.80
67353;BMP180;54238;52.278;21.056;2023-07-29T11:31:08;99889.60;;;32.80
67353;BMP180;54238;52.278;21.056;2023-07-29T11:33:39;99883.40;;;33.00
67353;BMP180;54238;52.278;21.056;2023-07-29T11:36:06;99883.60;;;33.22
67353;BMP180;54238;52.278;21.056;2023-07-29T11:38:38;99880.40;;;33.10
67353;BMP180;54238;52.278;21.056;2023-07-29T11:41:06;99867.80;;;32.84
67353;BMP180;54238;52.278;21.056;2023-07-29T11:43:38;99874.00;;;32.70
67353;BMP180;54238;52.278;21.056;2023-07-29T11:46:07;99869.80;;;32.60
67353;BMP180;54238;52.278;21.056;2023-07-29T11:48:46;99863.40;;;32.74
67353;BMP180;54238;52.278;21.056;2023-07-29T11:51:14;99871.40;;;32.80
67353;BMP180;54238;52.278;21.056;2023-07-29T11:53:46;99858.00;;;32.80
67353;BMP180;54238;52.278;21.056;2023-07-29T11:56:22;99851.80;;;32.80
67353;BMP180;54238;52.278;21.056;2023-07-29T11:58:53;99853.40;;;33.04
67353;BMP180;54238;52.278;21.056;2023-07-29T12:01:25;99848.80;;;33.38
67353;BMP180;54238;52.278;21.056;2023-07-29T12:03:53;99844.80;;;33.62
67353;BMP180;54238;52.278;21.056;2023-07-29T12:06:26;99841.60;;;34.02
67353;BMP180;54238;52.278;21.056;2023-07-29T12:08:56;99843.20;;;34.30
67353;BMP180;54238;52.278;21.056;2023-07-29T12:11:28;99838.60;;;34.40
67353;BMP180;54238;52.278;21.056;2023-07-29T12:14:00;99838.80;;;34.60
67353;BMP180;54238;52.278;21.056;2023-07-29T12:16:30;99836.80;;;34.96
67353;BMP180;54238;52.278;21.056;2023-07-29T12:19:01;99845.00;;;35.20
67353;BMP180;54238;52.278;21.056;2023-07-29T12:21:31;99841.00;;;35.20
67353;BMP180;54238;52.278;21.056;2023-07-29T12:23:58;99834.20;;;35.30
67353;BMP180;54238;52.278;21.056;2023-07-29T12:26:31;99830.40;;;35.40
67353;BMP180;54238;52.278;21.056;2023-07-29T12:28:59;99820.20;;;35.40
67353;BMP180;54238;52.278;21.056;2023-07-29T12:31:37;99819.40;;;34.90
67353;BMP180;54238;52.278;21.056;2023-07-29T12:34:09;99821.40;;;34.70
67353;BMP180;54238;52.278;21.056;2023-07-29T12:39:26;99824.80;;;34.90
67353;BMP180;54238;52.278;21.056;2023-07-29T12:42:00;99829.00;;;34.68
67353;BMP180;54238;52.278;21.056;2023-07-29T12:44:34;99826.20;;;34.40
67353;BMP180;54238;52.278;21.056;2023-07-29T12:47:09;99823.40;;;34.24
67353;BMP180;54238;52.278;21.056;2023-07-29T12:49:43;99818.40;;;34.20
67353;BMP180;54238;52.278;21.056;2023-07-29T12:52:10;99815.80;;;34.42
67353;BMP180;54238;52.278;21.056;2023-07-29T12:54:40;99825.00;;;34.80
67353;BMP180;54238;52.278;21.056;2023-07-29T12:57:09;99818.40;;;34.40
67353;BMP180;54238;52.278;21.056;2023-07-29T12:59:39;99811.00;;;33.98
67353;BMP180;54238;52.278;21.056;2023-07-29T13:02:08;99813.40;;;33.76
67353;BMP180;54238;52.278;21.056;2023-07-29T13:04:37;99813.80;;;33.70
67353;BMP180;54238;52.278;21.056;2023-07-29T13:07:07;99806.00;;;34.00
67353;BMP180;54238;52.278;21.056;2023-07-29T13:09:38;99808.20;;;34.10
67353;BMP180;54238;52.278;21.056;2023-07-29T13:12:06;99807.60;;;34.00
67353;BMP180;54238;52.278;21.056;2023-07-29T13:14:38;99805.60;;;33.74
67353;BMP180;54238;52.278;21.056;2023-07-29T13:17:05;99807.00;;;33.50
67353;BMP180;54238;52.278;21.056;2023-07-29T13:19:37;99803.40;;;33.22
67353;BMP180;54238;52.278;21.056;2023-07-29T13:22:04;99806.00;;;32.86
67353;BMP180;54238;52.278;21.056;2023-07-29T13:24:33;99794.80;;;32.70
67353;BMP180;54238;52.278;21.056;2023-07-29T13:27:07;99799.40;;;32.70
67353;BMP180;54238;52.278;21.056;2023-07-29T13:29:44;99793.80;;;32.50
67353;BMP180;54238;52.278;21.056;2023-07-29T13:32:15;99780.60;;;32.70
67353;BMP180;54238;52.278;21.056;2023-07-29T13:34:47;99780.60;;;33.20
67353;BMP180;54238;52.278;21.056;2023-07-29T13:37:16;99777.40;;;33.82
67353;BMP180;54238;52.278;21.056;2023-07-29T13:39:46;99777.80;;;34.48
67353;BMP180;54238;52.278;21.056;2023-07-29T13:42:18;99775.20;;;35.00
67353;BMP180;54238;52.278;21.056;2023-07-29T13:44:47;99775.40;;;34.90
67353;BMP180;54238;52.278;21.056;2023-07-29T13:47:19;99773.40;;;35.16
67353;BMP180;54238;52.278;21.056;2023-07-29T13:49:46;99777.60;;;35.00
67353;BMP180;54238;52.278;21.056;2023-07-29T13:52:14;99770.40;;;34.76
67353;BMP180;54238;52.278;21.056;2023-07-29T13:54:45;99766.60;;;34.84
67353;BMP180;54238;52.278;21.056;2023-07-29T13:57:17;99768.80;;;35.10
67353;BMP180;54238;52.278;21.056;2023-07-29T13:59:44;99761.80;;;35.40
67353;BMP180;54238;52.278;21.056;2023-07-29T14:02:11;99760.00;;;35.76
67353;BMP180;54238;52.278;21.056;2023-07-29T14:04:43;99755.60;;;35.90
67353;BMP180;54238;52.278;21.056;2023-07-29T14:07:12;99752.80;;;35.96
67353;BMP180;54238;52.278;21.056;2023-07-29T14:09:41;99756.80;;;35.80
67353;BMP180;54238;52.278;21.056;2023-07-29T14:12:12;99752.00;;;35.48
67353;BMP180;54238;52.278;21.056;2023-07-29T14:14:43;99756.20;;;35.18
67353;BMP180;54238;52.278;21.056;2023-07-29T14:17:13;99756.20;;;34.80
67353;BMP180;54238;52.278;21.056;2023-07-29T14:19:43;99749.60;;;34.36
67353;BMP180;54238;52.278;21.056;2023-07-29T14:22:12;99745.00;;;34.06
67353;BMP180;54238;52.278;21.056;2023-07-29T14:24:42;99743.60;;;33.68